sensor_id;sensor_type;location;lat;lon;timestamp;pressure;altitude;pressure_sealevel;temperature;humidity
38716;BME280;24833;49.324;8.694;2023-02-20T00:01:02;100919.72;;;8.36;81.10
38716;BME280;24833;49.324;8.694;2023-02-20T00:03:29;100935.69;;;8.36;80.94
38716;BME280;24833;49.324;8.694;2023-02-20T00:05:57;100936.63;;;8.35;81.27
38716;BME280;24833;49.324;8.694;2023-02-20T00:08:24;100933.09;;;8.35;81.00
38716;BME280;24833;49.324;8.694;2023-02-20T00:10:51;100937.59;;;8.34;81.00
38716;BME280;24833;49.324;8.694;2023-02-20T00:13:18;100941.25;;;8.33;81.34
38716;BME280;24833;49.324;8.694;2023-02-20T00:15:46;100937.75;;;8.33;81.11
38716;BME280;24833;49.324;8.694;2023-02-20T00:18:13;100939.59;;;8.32;81.29
38716;BME280;24833;49.324;8.694;2023-02-20T00:20:40;100932.59;;;8.31;81.05
38716;BME280;24833;49.324;8.694;2023-02-20T00:23:07;100942.41;;;8.31;81.03
38716;BME280;24833;49.324;8.694;2023-02-20T00:25:34;100945.06;;;8.31;81.18
38716;BME280;24833;49.324;8.694;2023-02-20T00:28:02;100945.22;;;8.29;80.96
38716;BME280;24833;49.324;8.694;2023-02-20T00:30:29;100943.53;;;8.28;81.31
38716;BME280;24833;49.324;8.694;2023-02-20T00:32:57;100939.03;;;8.29;81.07
38716;BME280;24833;49.324;8.694;2023-02-20T00:35:25;100940.19;;;8.26;81.18
38716;BME280;24833;49.324;8.694;2023-02-20T00:37:54;100948.16;;;8.26;81.26
38716;BME280;24833;49.324;8.694;2023-02-20T00:40:23;100951.00;;;8.25;81.12
38716;BME280;24833;49.324;8.694;2023-02-20T00:42:50;100939.66;;;8.23;81.37
38716;BME280;24833;49.324;8.694;2023-02-20T00:45:18;100943.28;;;8.22;81.08
38716;BME280;24833;49.324;8.694;2023-02-20T00:47:45;100937.97;;;8.22;80.87
38716;BME280;24833;49.324;8.694;2023-02-20T00:50:14;100935.63;;;8.18;80.74
38716;BME280;24833;49.324;8.694;2023-02-20T00:52:44;100928.78;;;8.16;81.13
38716;BME280;24833;49.324;8.694;2023-02-20T00:55:11;100929.09;;;8.13;80.63
38716;BME280;24833;49.324;8.694;2023-02-20T00:57:39;100924.91;;;8.10;80.84
38716;BME280;24833;49.324;8.694;2023-02-20T01:00:11;100929.69;;;8.07;80.71
38716;BME280;24833;49.324;8.694;2023-02-20T01:02:38;100926.34;;;8.05;80.89
38716;BME280;24833;49.324;8.694;2023-02-20T01:05:05;100924.97;;;8.01;80.66
38716;BME280;24833;49.324;8.694;2023-02-20T01:07:34;100939.56;;;7.97;80.60
38716;BME280;24833;49.324;8.694;2023-02-20T01:10:01;100932.84;;;7.92;80.74
38716;BME280;24833;49.324;8.694;2023-02-20T01:12:31;100944.75;;;7.88;80.60
38716;BME280;24833;49.324;8.694;2023-02-20T01:14:58;100935.44;;;7.84;80.90
38716;BME280;24833;49.324;8.694;2023-02-20T01:17:27;100930.56;;;7.80;80.74
38716;BME280;24833;49.324;8.694;2023-02-20T01:19:54;100922.06;;;7.76;80.48
38716;BME280;24833;49.324;8.694;2023-02-20T01:22:22;100926.13;;;7.71;80.82
38716;BME280;24833;49.324;8.694;2023-02-20T01:24:49;100924.59;;;7.68;80.67
38716;BME280;24833;49.324;8.694;2023-02-20T01:27:16;100935.69;;;7.63;80.89
38716;BME280;24833;49.324;8.694;2023-02-20T01:29:43;100930.81;;;7.59;80.80
38716;BME280;24833;49.324;8.694;2023-02-20T01:32:13;100925.78;;;7.56;80.79
38716;BME280;24833;49.324;8.694;2023-02-20T01:34:40;100924.41;;;7.52;80.29
38716;BME280;24833;49.324;8.694;2023-02-20T01:37:14;100928.31;;;7.48;80.14
38716;BME280;24833;49.324;8.694;2023-02-20T01:39:41;100928.63;;;7.45;80.66
38716;BME280;24833;49.324;8.694;2023-02-20T01:42:15;100926.41;;;7.40;80.47
38716;BME280;24833;49.324;8.694;2023-02-20T01:44:44;100932.03;;;7.37;80.46
38716;BME280;24833;49.324;8.694;2023-02-20T01:47:21;100921.16;;;7.30;80.35
38716;BME280;24833;49.324;8.694;2023-02-20T01:50:01;100927.56;;;7.28;80.07
38716;BME280;24833;49.324;8.694;2023-02-20T01:52:32;100915.56;;;7.24;80.40
38716;BME280;24833;49.324;8.694;2023-02-20T01:55:05;100916.00;;;7.19;80.59
38716;BME280;24833;49.324;8.694;2023-02-20T01:57:36;100920.91;;;7.14;80.53
38716;BME280;24833;49.324;8.694;2023-02-20T02:00:11;100913.25;;;7.11;80.38
38716;BME280;24833;49.324;8.694;2023-02-20T02:02:50;100914.50;;;7.07;80.24
38716;BME280;24833;49.324;8.694;2023-02-20T02:05:21;100913.13;;;7.03;80.51
38716;BME280;24833;49.324;8.694;2023-02-20T02:07:53;100903.63;;;7.00;80.72
38716;BME280;24833;49.324;8.694;2023-02-20T02:10:33;100914.69;;;6.96;80.29
38716;BME280;24833;49.324;8.694;2023-02-20T02:13:02;100907.97;;;6.92;80.23
38716;BME280;24833;49.324;8.694;2023-02-20T02:15:29;100905.59;;;6.89;80.22
38716;BME280;24833;49.324;8.694;2023-02-20T02:33:03;100900.22;;;6.61;79.94
38716;BME280;24833;49.324;8.694;2023-02-20T02:39:00;100893.94;;;6.52;80.08
38716;BME280;24833;49.324;8.694;2023-02-20T02:42:05;100898.72;;;6.49;79.85
38716;BME280;24833;49.324;8.694;2023-02-20T02:47:40;100894.81;;;6.43;79.89
38716;BME280;24833;49.324;8.694;2023-02-20T02:50:35;100892.56;;;6.39;79.83
38716;BME280;24833;49.324;8.694;2023-02-20T02:53:04;100899.81;;;6.37;79.97
38716;BME280;24833;49.324;8.694;2023-02-20T02:55:33;100882.50;;;6.33;80.31
38716;BME280;24833;49.324;8.694;2023-02-20T02:58:03;100881.81;;;6.31;80.15
38716;BME280;24833;49.324;8.694;2023-02-20T03:03:24;100893.97;;;6.23;79.63
38716;BME280;24833;49.324;8.694;2023-02-20T03:11:19;100880.56;;;6.15;79.80
38716;BME280;24833;49.324;8.694;2023-02-20T03:14:14;100882.66;;;6.12;80.08
38716;BME280;24833;49.324;8.694;2023-02-20T03:19:45;100885.72;;;6.07;79.92
38716;BME280;24833;49.324;8.694;2023-02-20T03:22:33;100890.31;;;6.05;79.73
38716;BME280;24833;49.324;8.694;2023-02-20T03:25:11;100886.97;;;6.03;79.77
38716;BME280;24833;49.324;8.694;2023-02-20T03:30:36;100880.28;;;5.99;80.33
38716;BME280;24833;49.324;8.694;2023-02-20T03:33:18;100887.53;;;5.97;80.01
38716;BME280;24833;49.324;8.694;2023-02-20T03:36:10;100883.22;;;5.96;80.00
38716;BME280;24833;49.324;8.694;2023-02-20T03:39:12;100877.19;;;5.94;79.91
38716;BME280;24833;49.324;8.694;2023-02-20T03:42:00;100880.81;;;5.93;80.42
38716;BME280;24833;49.324;8.694;2023-02-20T03:44:54;100880.13;;;5.91;80.65
38716;BME280;24833;49.324;8.694;2023-02-20T03:47:26;100882.78;;;5.91;80.54
38716;BME280;24833;49.324;8.694;2023-02-20T03:49:54;100882.06;;;5.89;80.26
38716;BME280;24833;49.324;8.694;2023-02-20T03:52:22;100883.00;;;5.88;80.85
38716;BME280;24833;49.324;8.694;2023-02-20T03:54:50;100878.69;;;5.87;80.73
38716;BME280;24833;49.324;8.694;2023-02-20T03:57:38;100873.53;;;5.85;80.47
38716;BME280;24833;49.324;8.694;2023-02-20T04:00:22;100875.34;;;5.85;80.27
38716;BME280;24833;49.324;8.694;2023-02-20T04:02:55;100871.84;;;5.84;80.66
38716;BME280;24833;49.324;8.694;2023-02-20T04:05:32;100876.31;;;5.84;81.32
38716;BME280;24833;49.324;8.694;2023-02-20T04:08:15;100888.84;;;5.82;80.43
38716;BME280;24833;49.324;8.694;2023-02-20T04:10:54;100886.34;;;5.80;80.71
38716;BME280;24833;49.324;8.694;2023-02-20T04:13:24;100882.03;;;5.79;80.86
38716;BME280;24833;49.324;8.694;2023-02-20T04:15:53;100880.22;;;5.80;80.88
38716;BME280;24833;49.324;8.694;2023-02-20T04:18:22;100882.16;;;5.78;80.47
38716;BME280;24833;49.324;8.694;2023-02-20T04:20:53;100904.34;;;5.77;80.88
38716;BME280;24833;49.324;8.694;2023-02-20T04:23:34;100900.97;;;5.74;80.41
38716;BME280;24833;49.324;8.694;2023-02-20T04:26:18;100900.28;;;5.72;80.75
38716;BME280;24833;49.324;8.694;2023-02-20T04:28:49;100902.94;;;5.72;80.83
38716;BME280;24833;49.324;8.694;2023-02-20T04:31:18;100907.53;;;5.70;80.99
38716;BME280;24833;49.324;8.694;2023-02-20T04:33:47;100904.19;;;5.68;80.96
38716;BME280;24833;49.324;8.694;2023-02-20T04:36:21;100902.50;;;5.67;81.01
38716;BME280;24833;49.324;8.694;2023-02-20T04:38:49;100892.19;;;5.64;81.04
38716;BME280;24833;49.324;8.694;2023-02-20T04:41:20;100893.84;;;5.65;80.88
38716;BME280;24833;49.324;8.694;2023-02-20T04:43:47;100896.78;;;5.62;80.96
38716;BME280;24833;49.324;8.694;2023-02-20T04:46:15;100887.13;;;5.61;80.79
38716;BME280;24833;49.324;8.694;2023-02-20T04:48:43;100894.25;;;5.61;81.38
38716;BME280;24833;49.324;8.694;2023-02-20T04:51:10;100894.38;;;5.59;80.79
38716;BME280;24833;49.324;8.694;2023-02-20T04:53:37;100890.06;;;5.58;80.78
38716;BME280;24833;49.324;8.694;2023-02-20T04:56:04;100895.50;;;5.57;81.07
38716;BME280;24833;49.324;8.694;2023-02-20T04:58:36;100887.72;;;5.55;80.97
38716;BME280;24833;49.324;8.694;2023-02-20T05:01:12;100893.13;;;5.54;80.86
38716;BME280;24833;49.324;8.694;2023-02-20T05:03:39;100894.09;;;5.53;80.76
38716;BME280;24833;49.324;8.694;2023-02-20T05:06:06;100897.72;;;5.52;81.21
38716;BME280;24833;49.324;8.694;2023-02-20T05:08:33;100891.59;;;5.51;81.15
38716;BME280;24833;49.324;8.694;2023-02-20T05:11:00;100897.03;;;5.50;81.16
38716;BME280;24833;49.324;8.694;2023-02-20T05:13:27;100901.50;;;5.49;80.98
38716;BME280;24833;49.324;8.694;2023-02-20T05:15:54;100909.44;;;5.49;81.24
38716;BME280;24833;49.324;8.694;2023-02-20T05:18:28;100899.09;;;5.46;80.83
38716;BME280;24833;49.324;8.694;2023-02-20T05:20:57;100898.94;;;5.47;81.13
38716;BME280;24833;49.324;8.694;2023-02-20T05:23:45;100898.25;;;5.45;80.81
38716;BME280;24833;49.324;8.694;2023-02-20T05:26:18;100897.41;;;5.45;80.70
38716;BME280;24833;49.324;8.694;2023-02-20T05:28:46;100903.41;;;5.47;81.29
38716;BME280;24833;49.324;8.694;2023-02-20T05:31:13;100905.38;;;5.45;81.03
38716;BME280;24833;49.324;8.694;2023-02-20T05:33:43;100905.38;;;5.45;80.86
38716;BME280;24833;49.324;8.694;2023-02-20T05:36:10;100905.50;;;5.43;81.25
38716;BME280;24833;49.324;8.694;2023-02-20T05:38:37;100899.47;;;5.41;80.66
38716;BME280;24833;49.324;8.694;2023-02-20T05:41:07;100899.63;;;5.40;80.90
38716;BME280;24833;49.324;8.694;2023-02-20T05:43:34;100899.63;;;5.40;80.83
38716;BME280;24833;49.324;8.694;2023-02-20T05:46:01;100889.31;;;5.37;81.01
38716;BME280;24833;49.324;8.694;2023-02-20T05:48:28;100889.31;;;5.37;81.13
38716;BME280;24833;49.324;8.694;2023-02-20T05:50:55;100894.59;;;5.37;81.29
38716;BME280;24833;49.324;8.694;2023-02-20T05:53:22;100893.78;;;5.36;80.88
38716;BME280;24833;49.324;8.694;2023-02-20T05:55:49;100883.19;;;5.36;80.95
38716;BME280;24833;49.324;8.694;2023-02-20T05:58:16;100889.31;;;5.37;81.69
38716;BME280;24833;49.324;8.694;2023-02-20T06:00:43;100889.31;;;5.37;81.12
38716;BME280;24833;49.324;8.694;2023-02-20T06:03:10;100900.59;;;5.39;81.37
38716;BME280;24833;49.324;8.694;2023-02-20T06:05:37;100888.19;;;5.39;81.85
38716;BME280;24833;49.324;8.694;2023-02-20T06:08:04;100879.41;;;5.39;81.42
38716;BME280;24833;49.324;8.694;2023-02-20T06:10:31;100892.66;;;5.39;81.35
38716;BME280;24833;49.324;8.694;2023-02-20T06:12:59;100893.34;;;5.41;81.15
38716;BME280;24833;49.324;8.694;2023-02-20T06:15:26;100889.03;;;5.40;81.13
38716;BME280;24833;49.324;8.694;2023-02-20T06:17:53;100889.88;;;5.40;81.14
38716;BME280;24833;49.324;8.694;2023-02-20T06:20:20;100884.56;;;5.40;81.20
38716;BME280;24833;49.324;8.694;2023-02-20T06:22:48;100882.75;;;5.41;81.35
38716;BME280;24833;49.324;8.694;2023-02-20T06:25:15;100882.75;;;5.41;81.57
38716;BME280;24833;49.324;8.694;2023-02-20T06:27:42;100889.88;;;5.40;81.53
38716;BME280;24833;49.324;8.694;2023-02-20T06:30:10;100881.81;;;5.42;81.51
38716;BME280;24833;49.324;8.694;2023-02-20T06:32:37;100880.94;;;5.41;81.53
38716;BME280;24833;49.324;8.694;2023-02-20T06:35:05;100888.78;;;5.43;81.33
38716;BME280;24833;49.324;8.694;2023-02-20T06:37:32;100879.16;;;5.42;81.32
38716;BME280;24833;49.324;8.694;2023-02-20T06:39:59;100879.03;;;5.43;81.52
38716;BME280;24833;49.324;8.694;2023-02-20T06:42:26;100877.06;;;5.45;81.72
38716;BME280;24833;49.324;8.694;2023-02-20T06:44:53;100884.19;;;5.45;81.41
38716;BME280;24833;49.324;8.694;2023-02-20T06:47:20;100883.19;;;5.46;81.60
38716;BME280;24833;49.324;8.694;2023-02-20T06:49:47;100883.19;;;5.46;81.77
38716;BME280;24833;49.324;8.694;2023-02-20T06:52:14;100882.38;;;5.45;82.38
38716;BME280;24833;49.324;8.694;2023-02-20T06:54:42;100891.84;;;5.48;82.08
38716;BME280;24833;49.324;8.694;2023-02-20T06:57:09;100882.94;;;5.49;82.57
38716;BME280;24833;49.324;8.694;2023-02-20T06:59:36;100883.78;;;5.50;82.23
38716;BME280;24833;49.324;8.694;2023-02-20T07:02:11;100891.72;;;5.50;82.21
38716;BME280;24833;49.324;8.694;2023-02-20T07:04:38;100887.97;;;5.52;82.21
38716;BME280;24833;49.324;8.694;2023-02-20T07:07:05;100896.75;;;5.53;82.17
38716;BME280;24833;49.324;8.694;2023-02-20T07:09:32;100902.72;;;5.55;82.17
38716;BME280;24833;49.324;8.694;2023-02-20T07:11:59;100903.59;;;5.55;82.13
38716;BME280;24833;49.324;8.694;2023-02-20T07:14:26;100911.25;;;5.58;82.57
38716;BME280;24833;49.324;8.694;2023-02-20T07:16:53;100907.63;;;5.59;82.62
38716;BME280;24833;49.324;8.694;2023-02-20T07:19:20;100921.56;;;5.61;82.37
38716;BME280;24833;49.324;8.694;2023-02-20T07:21:47;100921.47;;;5.63;82.16
38716;BME280;24833;49.324;8.694;2023-02-20T07:24:14;100915.03;;;5.65;82.97
38716;BME280;24833;49.324;8.694;2023-02-20T07:26:41;100919.22;;;5.68;82.88
38716;BME280;24833;49.324;8.694;2023-02-20T07:29:10;100917.16;;;5.71;82.72
38716;BME280;24833;49.324;8.694;2023-02-20T07:31:37;100927.63;;;5.73;82.57
38716;BME280;24833;49.324;8.694;2023-02-20T07:34:05;100922.91;;;5.77;82.92
38716;BME280;24833;49.324;8.694;2023-02-20T07:36:37;100922.59;;;5.80;83.21
38716;BME280;24833;49.324;8.694;2023-02-20T07:39:04;100924.88;;;5.84;83.36
38716;BME280;24833;49.324;8.694;2023-02-20T07:41:33;100923.59;;;5.88;83.03
38716;BME280;24833;49.324;8.694;2023-02-20T07:44:04;100917.94;;;5.93;83.27
38716;BME280;24833;49.324;8.694;2023-02-20T07:46:32;100914.88;;;5.97;83.43
38716;BME280;24833;49.324;8.694;2023-02-20T07:49:02;100921.44;;;6.03;83.40
38716;BME280;24833;49.324;8.694;2023-02-20T07:51:30;100925.22;;;6.10;83.26
38716;BME280;24833;49.324;8.694;2023-02-20T07:53:57;100916.72;;;6.16;83.22
38716;BME280;24833;49.324;8.694;2023-02-20T07:56:24;100921.47;;;6.22;83.68
38716;BME280;24833;49.324;8.694;2023-02-20T07:58:52;100920.78;;;6.30;83.60
38716;BME280;24833;49.324;8.694;2023-02-20T08:01:19;100921.03;;;6.37;83.47
38716;BME280;24833;49.324;8.694;2023-02-20T08:03:46;100911.56;;;6.44;83.71
38716;BME280;24833;49.324;8.694;2023-02-20T08:06:17;100913.66;;;6.50;83.47
38716;BME280;24833;49.324;8.694;2023-02-20T08:08:48;100915.59;;;6.58;83.96
38716;BME280;24833;49.324;8.694;2023-02-20T08:11:21;100913.22;;;6.64;83.71
38716;BME280;24833;49.324;8.694;2023-02-20T08:13:49;100912.66;;;6.70;83.78
38716;BME280;24833;49.324;8.694;2023-02-20T08:16:16;100911.09;;;6.77;84.21
38716;BME280;24833;49.324;8.694;2023-02-20T08:18:44;100898.91;;;6.85;84.15
38716;BME280;24833;49.324;8.694;2023-02-20T08:21:11;100906.16;;;6.92;84.27
38716;BME280;24833;49.324;8.694;2023-02-20T08:23:38;100909.06;;;6.99;84.13
38716;BME280;24833;49.324;8.694;2023-02-20T08:26:05;100905.84;;;7.05;84.23
38716;BME280;24833;49.324;8.694;2023-02-20T08:28:32;100900.66;;;7.13;84.67
38716;BME280;24833;49.324;8.694;2023-02-20T08:30:59;100902.44;;;7.22;84.84
38716;BME280;24833;49.324;8.694;2023-02-20T08:33:26;100908.53;;;7.32;84.93
38716;BME280;24833;49.324;8.694;2023-02-20T08:35:53;100906.81;;;7.41;84.63
38716;BME280;24833;49.324;8.694;2023-02-20T08:40:57;100897.25;;;7.58;84.90
38716;BME280;24833;49.324;8.694;2023-02-20T08:43:24;100889.06;;;7.69;85.14
38716;BME280;24833;49.324;8.694;2023-02-20T08:45:54;100888.16;;;7.78;85.37
38716;BME280;24833;49.324;8.694;2023-02-20T08:48:21;100883.47;;;7.90;85.26
38716;BME280;24833;49.324;8.694;2023-02-20T08:50:48;100881.28;;;8.03;85.71
38716;BME280;24833;49.324;8.694;2023-02-20T08:53:15;100884.84;;;8.12;85.28
38716;BME280;24833;49.324;8.694;2023-02-20T08:55:43;100888.25;;;8.22;85.58
38716;BME280;24833;49.324;8.694;2023-02-20T08:58:10;100883.03;;;8.30;85.72
38716;BME280;24833;49.324;8.694;2023-02-20T09:00:37;100882.13;;;8.39;85.39
38716;BME280;24833;49.324;8.694;2023-02-20T09:03:04;100884.84;;;8.48;85.47
38716;BME280;24833;49.324;8.694;2023-02-20T09:05:34;100876.91;;;8.56;85.38
38716;BME280;24833;49.324;8.694;2023-02-20T09:08:04;100870.97;;;8.62;86.01
38716;BME280;24833;49.324;8.694;2023-02-20T09:10:32;100874.69;;;8.69;85.35
38716;BME280;24833;49.324;8.694;2023-02-20T09:12:59;100872.41;;;8.74;85.41
38716;BME280;24833;49.324;8.694;2023-02-20T09:15:26;100860.63;;;8.77;85.53
38716;BME280;24833;49.324;8.694;2023-02-20T09:17:53;100866.28;;;8.82;85.47
38716;BME280;24833;49.324;8.694;2023-02-20T09:20:21;100869.50;;;8.85;85.39
38716;BME280;24833;49.324;8.694;2023-02-20T09:22:50;100868.16;;;8.89;85.01
38716;BME280;24833;49.324;8.694;2023-02-20T09:25:17;100855.53;;;8.91;84.72
38716;BME280;24833;49.324;8.694;2023-02-20T09:27:45;100861.53;;;8.93;84.86
38716;BME280;24833;49.324;8.694;2023-02-20T09:30:16;100866.69;;;8.95;84.58
38716;BME280;24833;49.324;8.694;2023-02-20T09:32:49;100857.72;;;8.96;84.49
38716;BME280;24833;49.324;8.694;2023-02-20T09:35:22;100865.56;;;8.97;84.64
38716;BME280;24833;49.324;8.694;2023-02-20T09:37:49;100875.22;;;8.98;84.38
38716;BME280;24833;49.324;8.694;2023-02-20T09:40:26;100866.41;;;8.98;84.65
38716;BME280;24833;49.324;8.694;2023-02-20T09:43:28;100875.06;;;9.00;84.77
38716;BME280;24833;49.324;8.694;2023-02-20T09:49:07;100853.59;;;9.01;84.83
38716;BME280;24833;49.324;8.694;2023-02-20T09:51:51;100856.94;;;9.04;84.33
38716;BME280;24833;49.324;8.694;2023-02-20T09:54:33;100852.28;;;9.06;85.06
38716;BME280;24833;49.324;8.694;2023-02-20T09:57:05;100852.94;;;9.08;84.50
38716;BME280;24833;49.324;8.694;2023-02-20T09:59:50;100853.31;;;9.13;85.30
38716;BME280;24833;49.324;8.694;2023-02-20T10:02:36;100845.34;;;9.21;85.25
38716;BME280;24833;49.324;8.694;2023-02-20T10:05:18;100842.72;;;9.29;84.51
38716;BME280;24833;49.324;8.694;2023-02-20T10:07:49;100832.59;;;9.33;84.78
38716;BME280;24833;49.324;8.694;2023-02-20T10:13:31;100827.81;;;9.44;84.58
38716;BME280;24833;49.324;8.694;2023-02-20T10:19:30;100830.84;;;9.58;84.74
38716;BME280;24833;49.324;8.694;2023-02-20T10:22:31;100832.84;;;9.64;84.14
38716;BME280;24833;49.324;8.694;2023-02-20T10:25:08;100831.50;;;9.68;84.00
38716;BME280;24833;49.324;8.694;2023-02-20T10:35:44;100818.56;;;9.97;84.44
38716;BME280;24833;49.324;8.694;2023-02-20T10:38:17;100820.25;;;10.06;84.31
38716;BME280;24833;49.324;8.694;2023-02-20T10:40:53;100813.75;;;10.17;84.36
38716;BME280;24833;49.324;8.694;2023-02-20T10:43:39;100823.09;;;10.29;84.71
38716;BME280;24833;49.324;8.694;2023-02-20T10:46:39;100808.56;;;10.40;84.69
38716;BME280;24833;49.324;8.694;2023-02-20T10:49:54;100797.38;;;10.53;85.17
38716;BME280;24833;49.324;8.694;2023-02-20T10:52:30;100799.03;;;10.62;84.85
38716;BME280;24833;49.324;8.694;2023-02-20T10:55:10;100797.84;;;10.73;84.45
38716;BME280;24833;49.324;8.694;2023-02-20T10:57:49;100792.13;;;10.84;84.46
38716;BME280;24833;49.324;8.694;2023-02-20T11:01:08;100789.75;;;10.97;83.40
38716;BME280;24833;49.324;8.694;2023-02-20T11:06:36;100784.50;;;11.12;83.94
38716;BME280;24833;49.324;8.694;2023-02-20T11:09:04;100780.97;;;11.19;83.76
38716;BME280;24833;49.324;8.694;2023-02-20T11:11:35;100777.22;;;11.29;82.99
38716;BME280;24833;49.324;8.694;2023-02-20T11:14:33;100782.56;;;11.37;82.97
38716;BME280;24833;49.324;8.694;2023-02-20T11:17:16;100773.47;;;11.46;83.23
38716;BME280;24833;49.324;8.694;2023-02-20T11:19:55;100767.22;;;11.54;83.18
38716;BME280;24833;49.324;8.694;2023-02-20T11:22:47;100768.69;;;11.64;83.71
38716;BME280;24833;49.324;8.694;2023-02-20T11:25:26;100766.97;;;11.71;83.49
38716;BME280;24833;49.324;8.694;2023-02-20T11:28:08;100755.00;;;11.82;83.62
38716;BME280;24833;49.324;8.694;2023-02-20T11:30:41;100748.22;;;11.94;83.69
38716;BME280;24833;49.324;8.694;2023-02-20T11:33:23;100754.00;;;12.06;84.10
38716;BME280;24833;49.324;8.694;2023-02-20T11:35:57;100750.03;;;12.17;83.84
38716;BME280;24833;49.324;8.694;2023-02-20T11:38:35;100748.78;;;12.27;82.65
38716;BME280;24833;49.324;8.694;2023-02-20T11:41:24;100748.03;;;12.34;83.59
38716;BME280;24833;49.324;8.694;2023-02-20T11:46:39;100733.81;;;12.48;82.73
38716;BME280;24833;49.324;8.694;2023-02-20T11:49:26;100736.06;;;12.59;83.58
38716;BME280;24833;49.324;8.694;2023-02-20T11:52:22;100721.00;;;12.73;83.82
38716;BME280;24833;49.324;8.694;2023-02-20T11:55:24;100728.56;;;12.84;83.08
38716;BME280;24833;49.324;8.694;2023-02-20T11:57:53;100720.13;;;12.87;82.21
38716;BME280;24833;49.324;8.694;2023-02-20T12:00:25;100704.78;;;12.96;82.94
38716;BME280;24833;49.324;8.694;2023-02-20T12:05:42;100707.25;;;13.12;81.39
38716;BME280;24833;49.324;8.694;2023-02-20T12:08:35;100699.13;;;13.20;82.74
38716;BME280;24833;49.324;8.694;2023-02-20T12:11:14;100693.63;;;13.28;82.94
38716;BME280;24833;49.324;8.694;2023-02-20T12:13:45;100687.75;;;13.40;80.76
38716;BME280;24833;49.324;8.694;2023-02-20T12:19:27;100669.38;;;13.58;84.00
38716;BME280;24833;49.324;8.694;2023-02-20T12:22:29;100666.81;;;13.71;82.85
38716;BME280;24833;49.324;8.694;2023-02-20T12:25:27;100666.44;;;13.81;82.61
38716;BME280;24833;49.324;8.694;2023-02-20T12:28:33;100667.13;;;13.89;83.59
38716;BME280;24833;49.324;8.694;2023-02-20T12:31:41;100652.94;;;13.96;82.62
38716;BME280;24833;49.324;8.694;2023-02-20T12:34:53;100659.63;;;14.06;82.38
38716;BME280;24833;49.324;8.694;2023-02-20T12:43:21;100630.00;;;14.28;82.94
38716;BME280;24833;49.324;8.694;2023-02-20T12:46:20;100634.16;;;14.37;82.66
38716;BME280;24833;49.324;8.694;2023-02-20T12:55:31;100624.81;;;14.61;81.86
38716;BME280;24833;49.324;8.694;2023-02-20T13:01:14;100619.06;;;14.77;78.82
38716;BME280;24833;49.324;8.694;2023-02-20T13:09:10;100591.22;;;14.98;78.18
38716;BME280;24833;49.324;8.694;2023-02-20T13:11:48;100583.16;;;15.05;79.08
38716;BME280;24833;49.324;8.694;2023-02-20T13:14:18;100584.38;;;15.09;77.18
38716;BME280;24833;49.324;8.694;2023-02-20T13:25:48;100561.22;;;15.34;77.55
38716;BME280;24833;49.324;8.694;2023-02-20T13:28:38;100561.63;;;15.44;79.32
38716;BME280;24833;49.324;8.694;2023-02-20T13:36:44;100556.25;;;15.71;77.73
38716;BME280;24833;49.324;8.694;2023-02-20T13:39:33;100549.41;;;15.88;81.54
38716;BME280;24833;49.324;8.694;2023-02-20T13:42:03;100556.00;;;15.99;79.22
38716;BME280;24833;49.324;8.694;2023-02-20T13:44:49;100533.59;;;16.12;78.28
38716;BME280;24833;49.324;8.694;2023-02-20T13:47:28;100540.97;;;16.29;81.05
38716;BME280;24833;49.324;8.694;2023-02-20T13:49:57;100537.38;;;16.42;80.50
38716;BME280;24833;49.324;8.694;2023-02-20T13:58:12;100531.34;;;16.85;82.75
38716;BME280;24833;49.324;8.694;2023-02-20T14:00:52;100529.22;;;16.94;82.05
38716;BME280;24833;49.324;8.694;2023-02-20T14:03:26;100522.13;;;16.99;76.03
38716;BME280;24833;49.324;8.694;2023-02-20T14:06:14;100509.25;;;17.01;76.66
38716;BME280;24833;49.324;8.694;2023-02-20T14:08:47;100519.59;;;17.04;76.87
38716;BME280;24833;49.324;8.694;2023-02-20T14:11:33;100518.38;;;17.00;75.25
38716;BME280;24833;49.324;8.694;2023-02-20T14:14:28;100515.06;;;16.98;77.16
38716;BME280;24833;49.324;8.694;2023-02-20T14:17:12;100497.41;;;17.02;76.96
38716;BME280;24833;49.324;8.694;2023-02-20T14:19:51;100506.28;;;17.09;77.49
38716;BME280;24833;49.324;8.694;2023-02-20T14:22:31;100495.19;;;17.17;78.04
38716;BME280;24833;49.324;8.694;2023-02-20T14:25:21;100484.72;;;17.28;80.45
38716;BME280;24833;49.324;8.694;2023-02-20T14:27:48;100479.94;;;17.30;76.34
38716;BME280;24833;49.324;8.694;2023-02-20T14:30:22;100481.91;;;17.41;78.87
38716;BME280;24833;49.324;8.694;2023-02-20T14:32:54;100477.44;;;17.53;76.39
38716;BME280;24833;49.324;8.694;2023-02-20T14:35:48;100475.00;;;17.63;80.51
38716;BME280;24833;49.324;8.694;2023-02-20T14:38:57;100475.75;;;17.70;80.27
38716;BME280;24833;49.324;8.694;2023-02-20T14:41:27;100473.72;;;17.73;77.85
38716;BME280;24833;49.324;8.694;2023-02-20T14:43:59;100472.78;;;17.79;75.33
38716;BME280;24833;49.324;8.694;2023-02-20T14:46:32;100460.97;;;17.80;78.89
38716;BME280;24833;49.324;8.694;2023-02-20T14:49:08;100448.03;;;17.82;76.57
38716;BME280;24833;49.324;8.694;2023-02-20T14:51:36;100443.22;;;17.84;75.49
38716;BME280;24833;49.324;8.694;2023-02-20T14:54:25;100445.59;;;17.92;79.92
38716;BME280;24833;49.324;8.694;2023-02-20T14:56:55;100438.44;;;17.86;75.41
38716;BME280;24833;49.324;8.694;2023-02-20T14:59:23;100444.03;;;17.84;76.40
38716;BME280;24833;49.324;8.694;2023-02-20T15:01:55;100439.94;;;17.82;77.02
38716;BME280;24833;49.324;8.694;2023-02-20T15:04:24;100442.47;;;17.77;75.84
38716;BME280;24833;49.324;8.694;2023-02-20T15:07:01;100443.56;;;17.69;76.79
38716;BME280;24833;49.324;8.694;2023-02-20T15:09:42;100442.00;;;17.61;76.86
38716;BME280;24833;49.324;8.694;2023-02-20T15:15:00;100426.69;;;17.37;76.76
38716;BME280;24833;49.324;8.694;2023-02-20T15:17:31;100426.75;;;17.30;75.99
38716;BME280;24833;49.324;8.694;2023-02-20T15:19:58;100419.94;;;17.28;76.40
38716;BME280;24833;49.324;8.694;2023-02-20T15:22:34;100418.28;;;17.27;78.26